sensor_id;sensor_type;location;lat;lon;timestamp;P1;durP1;ratioP1;P2;durP2;ratioP2
62006;SDS011;47963;53.008;6.754;2023-01-19T00:02:25;15.40;;;13.45;;
62006;SDS011;47963;53.008;6.754;2023-01-19T00:04:51;17.02;;;12.90;;
62006;SDS011;47963;53.008;6.754;2023-01-19T00:07:16;15.05;;;11.65;;
62006;SDS011;47963;53.008;6.754;2023-01-19T00:09:42;14.68;;;11.63;;
62006;SDS011;47963;53.008;6.754;2023-01-19T00:12:08;16.00;;;12.07;;
62006;SDS011;47963;53.008;6.754;2023-01-19T00:14:34;15.75;;;12.00;;
62006;SDS011;47963;53.008;6.754;2023-01-19T00:17:00;14.35;;;10.82;;
62006;SDS011;47963;53.008;6.754;2023-01-19T00:19:26;14.45;;;11.20;;
62006;SDS011;47963;53.008;6.754;2023-01-19T00:21:52;13.38;;;11.13;;
62006;SDS011;47963;53.008;6.754;2023-01-19T00:24:17;13.23;;;9.80;;
62006;SDS011;47963;53.008;6.754;2023-01-19T00:26:43;12.75;;;9.50;;
62006;SDS011;47963;53.008;6.754;2023-01-19T00:29:09;12.82;;;8.90;;
62006;SDS011;47963;53.008;6.754;2023-01-19T00:31:36;13.70;;;8.65;;
62006;SDS011;47963;53.008;6.754;2023-01-19T00:34:02;13.07;;;8.38;;
62006;SDS011;47963;53.008;6.754;2023-01-19T00:36:29;10.80;;;7.40;;
62006;SDS011;47963;53.008;6.754;2023-01-19T00:38:55;10.05;;;7.05;;
62006;SDS011;47963;53.008;6.754;2023-01-19T00:41:21;11.48;;;6.25;;
62006;SDS011;47963;53.008;6.754;2023-01-19T00:44:07;10.18;;;5.80;;
62006;SDS011;47963;53.008;6.754;2023-01-19T00:46:33;9.45;;;5.63;;
62006;SDS011;47963;53.008;6.754;2023-01-19T00:48:58;9.75;;;5.18;;
62006;SDS011;47963;53.008;6.754;2023-01-19T00:51:24;9.48;;;5.47;;
62006;SDS011;47963;53.008;6.754;2023-01-19T00:53:51;8.68;;;4.55;;
62006;SDS011;47963;53.008;6.754;2023-01-19T00:56:16;9.65;;;4.78;;
62006;SDS011;47963;53.008;6.754;2023-01-19T00:58:42;7.57;;;4.30;;
62006;SDS011;47963;53.008;6.754;2023-01-19T01:01:09;7.95;;;3.90;;
62006;SDS011;47963;53.008;6.754;2023-01-19T01:03:35;7.65;;;4.05;;
62006;SDS011;47963;53.008;6.754;2023-01-19T01:06:01;7.75;;;4.60;;
62006;SDS011;47963;53.008;6.754;2023-01-19T01:08:27;8.40;;;4.75;;
62006;SDS011;47963;53.008;6.754;2023-01-19T01:10:54;7.43;;;4.50;;
62006;SDS011;47963;53.008;6.754;2023-01-19T01:13:20;7.82;;;4.70;;
62006;SDS011;47963;53.008;6.754;2023-01-19T01:15:48;8.20;;;4.53;;
62006;SDS011;47963;53.008;6.754;2023-01-19T01:18:15;8.80;;;4.70;;
62006;SDS011;47963;53.008;6.754;2023-01-19T01:20:40;9.55;;;4.90;;
62006;SDS011;47963;53.008;6.754;2023-01-19T01:23:06;7.43;;;4.70;;
62006;SDS011;47963;53.008;6.754;2023-01-19T01:25:32;7.70;;;5.00;;
62006;SDS011;47963;53.008;6.754;2023-01-19T01:28:02;8.10;;;5.15;;
62006;SDS011;47963;53.008;6.754;2023-01-19T01:30:30;7.75;;;5.00;;
62006;SDS011;47963;53.008;6.754;2023-01-19T01:32:56;8.98;;;4.93;;
62006;SDS011;47963;53.008;6.754;2023-01-19T01:35:21;7.95;;;4.63;;
62006;SDS011;47963;53.008;6.754;2023-01-19T01:37:47;8.15;;;4.53;;
62006;SDS011;47963;53.008;6.754;2023-01-19T01:40:14;8.23;;;4.45;;
62006;SDS011;47963;53.008;6.754;2023-01-19T01:42:41;7.50;;;4.70;;
62006;SDS011;47963;53.008;6.754;2023-01-19T01:45:27;8.10;;;5.20;;
62006;SDS011;47963;53.008;6.754;2023-01-19T01:47:56;9.30;;;5.18;;
62006;SDS011;47963;53.008;6.754;2023-01-19T01:50:30;9.27;;;5.25;;
62006;SDS011;47963;53.008;6.754;2023-01-19T01:52:58;9.13;;;5.35;;
62006;SDS011;47963;53.008;6.754;2023-01-19T01:55:52;8.05;;;5.68;;
62006;SDS011;47963;53.008;6.754;2023-01-19T01:58:18;9.93;;;6.40;;
62006;SDS011;47963;53.008;6.754;2023-01-19T02:00:44;9.95;;;6.20;;
62006;SDS011;47963;53.008;6.754;2023-01-19T02:03:28;9.27;;;6.65;;
62006;SDS011;47963;53.008;6.754;2023-01-19T02:05:56;10.70;;;7.25;;
62006;SDS011;47963;53.008;6.754;2023-01-19T02:08:27;10.57;;;7.55;;
62006;SDS011;47963;53.008;6.754;2023-01-19T02:11:16;10.60;;;7.75;;
62006;SDS011;47963;53.008;6.754;2023-01-19T02:14:02;12.35;;;8.60;;
62006;SDS011;47963;53.008;6.754;2023-01-19T02:16:31;12.00;;;9.10;;
62006;SDS011;47963;53.008;6.754;2023-01-19T02:18:57;11.70;;;9.25;;
62006;SDS011;47963;53.008;6.754;2023-01-19T02:21:40;12.88;;;9.43;;
62006;SDS011;47963;53.008;6.754;2023-01-19T02:24:12;13.05;;;9.40;;
62006;SDS011;47963;53.008;6.754;2023-01-19T02:26:39;13.23;;;9.65;;
62006;SDS011;47963;53.008;6.754;2023-01-19T02:29:17;12.45;;;9.90;;
62006;SDS011;47963;53.008;6.754;2023-01-19T02:31:46;12.82;;;10.25;;
62006;SDS011;47963;53.008;6.754;2023-01-19T02:34:16;13.05;;;10.88;;
62006;SDS011;47963;53.008;6.754;2023-01-19T02:39:13;14.65;;;11.48;;
62006;SDS011;47963;53.008;6.754;2023-01-19T02:41:44;14.32;;;11.50;;
62006;SDS011;47963;53.008;6.754;2023-01-19T02:44:14;16.95;;;12.05;;
62006;SDS011;47963;53.008;6.754;2023-01-19T02:46:41;16.08;;;12.70;;
62006;SDS011;47963;53.008;6.754;2023-01-19T02:49:07;19.83;;;14.07;;
62006;SDS011;47963;53.008;6.754;2023-01-19T02:51:32;15.90;;;13.35;;
62006;SDS011;47963;53.008;6.754;2023-01-19T03:02:35;18.73;;;16.52;;
62006;SDS011;47963;53.008;6.754;2023-01-19T03:07:58;20.67;;;18.20;;
62006;SDS011;47963;53.008;6.754;2023-01-19T03:10:39;21.70;;;17.85;;
62006;SDS011;47963;53.008;6.754;2023-01-19T03:15:49;20.98;;;18.50;;
62006;SDS011;47963;53.008;6.754;2023-01-19T03:18:21;22.15;;;19.45;;
62006;SDS011;47963;53.008;6.754;2023-01-19T03:20:51;21.67;;;19.33;;
62006;SDS011;47963;53.008;6.754;2023-01-19T03:23:19;20.27;;;17.92;;
62006;SDS011;47963;53.008;6.754;2023-01-19T03:25:48;21.95;;;18.55;;
62006;SDS011;47963;53.008;6.754;2023-01-19T03:28:16;20.20;;;18.05;;
62006;SDS011;47963;53.008;6.754;2023-01-19T03:30:46;18.27;;;16.25;;
62006;SDS011;47963;53.008;6.754;2023-01-19T03:33:21;21.65;;;18.65;;
62006;SDS011;47963;53.008;6.754;2023-01-19T03:35:52;22.02;;;17.38;;
62006;SDS011;47963;53.008;6.754;2023-01-19T03:38:23;17.98;;;16.02;;
62006;SDS011;47963;53.008;6.754;2023-01-19T03:40:52;19.48;;;16.98;;
62006;SDS011;47963;53.008;6.754;2023-01-19T03:43:22;18.55;;;16.55;;
62006;SDS011;47963;53.008;6.754;2023-01-19T03:45:49;18.35;;;15.82;;
62006;SDS011;47963;53.008;6.754;2023-01-19T03:48:16;18.60;;;15.48;;
62006;SDS011;47963;53.008;6.754;2023-01-19T03:50:44;19.65;;;14.68;;
62006;SDS011;47963;53.008;6.754;2023-01-19T03:53:12;16.00;;;14.13;;
62006;SDS011;47963;53.008;6.754;2023-01-19T03:55:40;16.92;;;14.45;;
62006;SDS011;47963;53.008;6.754;2023-01-19T03:58:08;15.50;;;13.55;;
62006;SDS011;47963;53.008;6.754;2023-01-19T04:00:34;16.67;;;13.20;;
62006;SDS011;47963;53.008;6.754;2023-01-19T04:03:01;15.40;;;12.35;;
62006;SDS011;47963;53.008;6.754;2023-01-19T04:05:29;15.45;;;13.07;;
62006;SDS011;47963;53.008;6.754;2023-01-19T04:07:55;13.85;;;11.35;;
62006;SDS011;47963;53.008;6.754;2023-01-19T04:10:21;13.75;;;11.20;;
62006;SDS011;47963;53.008;6.754;2023-01-19T04:12:47;14.80;;;12.25;;
62006;SDS011;47963;53.008;6.754;2023-01-19T04:15:13;16.08;;;12.10;;
62006;SDS011;47963;53.008;6.754;2023-01-19T04:17:39;14.23;;;11.50;;
62006;SDS011;47963;53.008;6.754;2023-01-19T04:20:06;14.45;;;11.90;;
62006;SDS011;47963;53.008;6.754;2023-01-19T04:22:33;14.32;;;11.77;;
62006;SDS011;47963;53.008;6.754;2023-01-19T04:24:59;14.82;;;11.93;;
62006;SDS011;47963;53.008;6.754;2023-01-19T04:27:25;14.77;;;11.10;;
62006;SDS011;47963;53.008;6.754;2023-01-19T04:29:51;13.60;;;11.05;;
62006;SDS011;47963;53.008;6.754;2023-01-19T04:32:16;12.35;;;10.30;;
62006;SDS011;47963;53.008;6.754;2023-01-19T04:34:43;13.13;;;9.95;;
62006;SDS011;47963;53.008;6.754;2023-01-19T04:37:09;13.07;;;9.82;;
62006;SDS011;47963;53.008;6.754;2023-01-19T04:39:34;12.45;;;9.63;;
62006;SDS011;47963;53.008;6.754;2023-01-19T04:42:00;11.75;;;9.20;;
62006;SDS011;47963;53.008;6.754;2023-01-19T04:44:26;11.02;;;8.55;;
62006;SDS011;47963;53.008;6.754;2023-01-19T04:46:53;12.30;;;8.77;;
62006;SDS011;47963;53.008;6.754;2023-01-19T04:49:18;12.02;;;8.63;;
62006;SDS011;47963;53.008;6.754;2023-01-19T04:51:44;11.40;;;8.65;;
62006;SDS011;47963;53.008;6.754;2023-01-19T04:54:10;12.25;;;8.65;;
62006;SDS011;47963;53.008;6.754;2023-01-19T04:56:36;12.45;;;8.68;;
62006;SDS011;47963;53.008;6.754;2023-01-19T04:59:01;11.85;;;9.05;;
62006;SDS011;47963;53.008;6.754;2023-01-19T05:01:27;12.15;;;9.25;;
62006;SDS011;47963;53.008;6.754;2023-01-19T05:03:53;11.98;;;8.45;;
62006;SDS011;47963;53.008;6.754;2023-01-19T05:06:18;11.93;;;8.00;;
62006;SDS011;47963;53.008;6.754;2023-01-19T05:08:44;11.50;;;7.43;;
62006;SDS011;47963;53.008;6.754;2023-01-19T05:11:10;11.63;;;8.40;;
62006;SDS011;47963;53.008;6.754;2023-01-19T05:13:35;11.68;;;7.30;;
62006;SDS011;47963;53.008;6.754;2023-01-19T05:16:01;12.63;;;7.78;;
62006;SDS011;47963;53.008;6.754;2023-01-19T05:18:27;12.43;;;7.85;;
62006;SDS011;47963;53.008;6.754;2023-01-19T05:20:53;10.75;;;7.47;;
62006;SDS011;47963;53.008;6.754;2023-01-19T05:23:19;11.02;;;7.10;;
62006;SDS011;47963;53.008;6.754;2023-01-19T05:25:45;11.60;;;6.80;;
62006;SDS011;47963;53.008;6.754;2023-01-19T05:28:11;10.23;;;6.85;;
62006;SDS011;47963;53.008;6.754;2023-01-19T05:30:37;10.30;;;6.20;;
62006;SDS011;47963;53.008;6.754;2023-01-19T05:33:02;11.45;;;6.40;;
62006;SDS011;47963;53.008;6.754;2023-01-19T05:35:28;11.30;;;6.43;;
62006;SDS011;47963;53.008;6.754;2023-01-19T05:37:54;13.65;;;6.80;;
62006;SDS011;47963;53.008;6.754;2023-01-19T05:40:19;11.88;;;6.57;;
62006;SDS011;47963;53.008;6.754;2023-01-19T05:42:45;11.68;;;6.30;;
62006;SDS011;47963;53.008;6.754;2023-01-19T05:45:11;10.30;;;5.78;;
62006;SDS011;47963;53.008;6.754;2023-01-19T05:47:37;11.27;;;6.40;;
62006;SDS011;47963;53.008;6.754;2023-01-19T05:50:04;11.85;;;6.00;;
62006;SDS011;47963;53.008;6.754;2023-01-19T05:52:30;13.65;;;6.45;;
62006;SDS011;47963;53.008;6.754;2023-01-19T05:54:55;13.18;;;5.97;;
62006;SDS011;47963;53.008;6.754;2023-01-19T05:57:21;13.45;;;6.13;;
62006;SDS011;47963;53.008;6.754;2023-01-19T05:59:47;13.48;;;5.60;;
62006;SDS011;47963;53.008;6.754;2023-01-19T06:02:13;13.07;;;5.68;;
62006;SDS011;47963;53.008;6.754;2023-01-19T06:04:39;11.55;;;5.63;;
62006;SDS011;47963;53.008;6.754;2023-01-19T06:07:05;13.15;;;5.80;;
62006;SDS011;47963;53.008;6.754;2023-01-19T06:09:31;12.18;;;5.18;;
62006;SDS011;47963;53.008;6.754;2023-01-19T06:11:57;11.30;;;5.32;;
62006;SDS011;47963;53.008;6.754;2023-01-19T06:14:24;10.10;;;4.60;;
62006;SDS011;47963;53.008;6.754;2023-01-19T06:16:50;12.30;;;4.90;;
62006;SDS011;47963;53.008;6.754;2023-01-19T06:19:16;13.20;;;3.60;;
62006;SDS011;47963;53.008;6.754;2023-01-19T06:21:42;10.00;;;3.65;;
62006;SDS011;47963;53.008;6.754;2023-01-19T06:24:13;9.25;;;2.90;;
62006;SDS011;47963;53.008;6.754;2023-01-19T06:26:39;8.25;;;2.72;;
62006;SDS011;47963;53.008;6.754;2023-01-19T06:29:07;12.13;;;2.65;;
62006;SDS011;47963;53.008;6.754;2023-01-19T06:31:34;10.05;;;2.55;;
62006;SDS011;47963;53.008;6.754;2023-01-19T06:34:00;8.68;;;2.42;;
62006;SDS011;47963;53.008;6.754;2023-01-19T06:36:26;8.80;;;2.40;;
62006;SDS011;47963;53.008;6.754;2023-01-19T06:38:51;8.00;;;2.40;;
62006;SDS011;47963;53.008;6.754;2023-01-19T06:41:17;9.93;;;2.42;;
62006;SDS011;47963;53.008;6.754;2023-01-19T06:43:42;8.95;;;2.15;;
62006;SDS011;47963;53.008;6.754;2023-01-19T06:46:08;10.45;;;2.30;;
62006;SDS011;47963;53.008;6.754;2023-01-19T06:48:34;8.93;;;2.10;;
62006;SDS011;47963;53.008;6.754;2023-01-19T06:50:59;11.93;;;2.25;;
62006;SDS011;47963;53.008;6.754;2023-01-19T06:53:25;9.88;;;2.03;;
62006;SDS011;47963;53.008;6.754;2023-01-19T06:55:52;10.85;;;2.03;;
62006;SDS011;47963;53.008;6.754;2023-01-19T06:58:18;10.18;;;1.98;;
62006;SDS011;47963;53.008;6.754;2023-01-19T07:00:43;9.70;;;2.13;;
62006;SDS011;47963;53.008;6.754;2023-01-19T07:03:10;9.40;;;1.92;;
62006;SDS011;47963;53.008;6.754;2023-01-19T07:05:43;10.02;;;2.30;;
62006;SDS011;47963;53.008;6.754;2023-01-19T07:08:09;10.18;;;2.10;;
62006;SDS011;47963;53.008;6.754;2023-01-19T07:10:34;10.73;;;2.75;;
62006;SDS011;47963;53.008;6.754;2023-01-19T07:13:01;9.23;;;2.20;;
62006;SDS011;47963;53.008;6.754;2023-01-19T07:15:27;12.45;;;2.30;;
62006;SDS011;47963;53.008;6.754;2023-01-19T07:17:55;11.35;;;2.53;;
62006;SDS011;47963;53.008;6.754;2023-01-19T07:20:22;12.93;;;2.22;;
62006;SDS011;47963;53.008;6.754;2023-01-19T07:22:53;10.88;;;2.72;;
62006;SDS011;47963;53.008;6.754;2023-01-19T07:25:20;12.18;;;2.25;;
62006;SDS011;47963;53.008;6.754;2023-01-19T07:27:46;12.20;;;2.28;;
62006;SDS011;47963;53.008;6.754;2023-01-19T07:30:12;10.77;;;2.45;;
62006;SDS011;47963;53.008;6.754;2023-01-19T07:32:40;11.70;;;2.30;;
62006;SDS011;47963;53.008;6.754;2023-01-19T07:35:07;11.82;;;2.50;;
62006;SDS011;47963;53.008;6.754;2023-01-19T07:37:33;13.80;;;2.65;;
62006;SDS011;47963;53.008;6.754;2023-01-19T07:39:59;14.00;;;2.63;;
62006;SDS011;47963;53.008;6.754;2023-01-19T07:42:25;16.25;;;2.47;;
62006;SDS011;47963;53.008;6.754;2023-01-19T07:44:51;13.73;;;2.60;;
62006;SDS011;47963;53.008;6.754;2023-01-19T07:47:17;12.52;;;2.55;;
62006;SDS011;47963;53.008;6.754;2023-01-19T07:49:43;15.43;;;2.88;;
62006;SDS011;47963;53.008;6.754;2023-01-19T07:52:09;13.38;;;2.88;;
62006;SDS011;47963;53.008;6.754;2023-01-19T07:54:35;14.95;;;2.67;;
62006;SDS011;47963;53.008;6.754;2023-01-19T07:57:00;16.50;;;3.00;;
62006;SDS011;47963;53.008;6.754;2023-01-19T07:59:26;17.48;;;3.45;;
62006;SDS011;47963;53.008;6.754;2023-01-19T08:01:54;15.13;;;2.80;;
62006;SDS011;47963;53.008;6.754;2023-01-19T08:04:22;18.20;;;2.85;;
62006;SDS011;47963;53.008;6.754;2023-01-19T08:06:47;17.33;;;2.92;;
62006;SDS011;47963;53.008;6.754;2023-01-19T08:09:13;15.52;;;2.60;;
62006;SDS011;47963;53.008;6.754;2023-01-19T08:11:39;14.57;;;2.97;;
62006;SDS011;47963;53.008;6.754;2023-01-19T08:14:04;16.13;;;3.05;;
62006;SDS011;47963;53.008;6.754;2023-01-19T08:16:30;16.13;;;3.08;;
62006;SDS011;47963;53.008;6.754;2023-01-19T08:18:56;18.98;;;3.40;;
62006;SDS011;47963;53.008;6.754;2023-01-19T08:21:21;20.42;;;2.97;;
62006;SDS011;47963;53.008;6.754;2023-01-19T08:23:51;20.42;;;3.22;;
62006;SDS011;47963;53.008;6.754;2023-01-19T08:26:18;19.33;;;3.60;;
62006;SDS011;47963;53.008;6.754;2023-01-19T08:28:53;18.25;;;3.30;;
62006;SDS011;47963;53.008;6.754;2023-01-19T08:31:19;17.65;;;3.10;;
62006;SDS011;47963;53.008;6.754;2023-01-19T08:33:46;19.52;;;3.40;;
62006;SDS011;47963;53.008;6.754;2023-01-19T08:36:11;17.40;;;3.45;;
62006;SDS011;47963;53.008;6.754;2023-01-19T08:38:37;18.42;;;3.60;;
62006;SDS011;47963;53.008;6.754;2023-01-19T08:41:07;17.63;;;3.30;;
62006;SDS011;47963;53.008;6.754;2023-01-19T08:43:33;14.63;;;2.47;;
62006;SDS011;47963;53.008;6.754;2023-01-19T08:45:59;18.23;;;3.28;;
62006;SDS011;47963;53.008;6.754;2023-01-19T08:48:24;18.77;;;3.40;;
62006;SDS011;47963;53.008;6.754;2023-01-19T08:50:50;20.23;;;3.58;;
62006;SDS011;47963;53.008;6.754;2023-01-19T08:53:17;18.75;;;3.22;;
62006;SDS011;47963;53.008;6.754;2023-01-19T08:55:45;20.48;;;4.05;;
62006;SDS011;47963;53.008;6.754;2023-01-19T08:58:11;16.20;;;3.13;;
62006;SDS011;47963;53.008;6.754;2023-01-19T09:00:37;21.40;;;3.72;;
62006;SDS011;47963;53.008;6.754;2023-01-19T09:03:08;21.77;;;3.75;;
62006;SDS011;47963;53.008;6.754;2023-01-19T09:05:36;17.75;;;3.45;;
62006;SDS011;47963;53.008;6.754;2023-01-19T09:08:07;18.50;;;2.97;;
62006;SDS011;47963;53.008;6.754;2023-01-19T09:10:34;20.00;;;3.17;;
62006;SDS011;47963;53.008;6.754;2023-01-19T09:13:05;18.73;;;3.28;;
62006;SDS011;47963;53.008;6.754;2023-01-19T09:15:35;14.70;;;3.15;;
62006;SDS011;47963;53.008;6.754;2023-01-19T09:18:02;17.83;;;3.33;;
62006;SDS011;47963;53.008;6.754;2023-01-19T09:20:30;19.90;;;3.78;;
62006;SDS011;47963;53.008;6.754;2023-01-19T09:22:57;17.63;;;3.67;;
62006;SDS011;47963;53.008;6.754;2023-01-19T09:25:23;19.45;;;3.72;;
62006;SDS011;47963;53.008;6.754;2023-01-19T09:27:49;17.20;;;3.70;;
62006;SDS011;47963;53.008;6.754;2023-01-19T09:30:15;23.10;;;3.80;;
62006;SDS011;47963;53.008;6.754;2023-01-19T09:32:41;23.90;;;4.30;;
62006;SDS011;47963;53.008;6.754;2023-01-19T09:35:07;18.90;;;4.00;;
62006;SDS011;47963;53.008;6.754;2023-01-19T09:37:33;23.60;;;4.50;;
62006;SDS011;47963;53.008;6.754;2023-01-19T09:39:59;21.27;;;3.92;;
62006;SDS011;47963;53.008;6.754;2023-01-19T09:45:00;22.83;;;4.00;;
62006;SDS011;47963;53.008;6.754;2023-01-19T09:47:29;18.75;;;3.53;;
62006;SDS011;47963;53.008;6.754;2023-01-19T09:52:57;19.30;;;4.25;;
62006;SDS011;47963;53.008;6.754;2023-01-19T09:55:31;21.95;;;4.18;;
62006;SDS011;47963;53.008;6.754;2023-01-19T09:57:57;24.25;;;4.15;;
62006;SDS011;47963;53.008;6.754;2023-01-19T10:00:23;25.38;;;4.05;;
62006;SDS011;47963;53.008;6.754;2023-01-19T10:02:55;21.67;;;4.10;;
62006;SDS011;47963;53.008;6.754;2023-01-19T10:05:46;21.85;;;5.03;;
62006;SDS011;47963;53.008;6.754;2023-01-19T10:08:37;21.73;;;3.90;;
62006;SDS011;47963;53.008;6.754;2023-01-19T10:11:33;22.63;;;4.20;;
62006;SDS011;47963;53.008;6.754;2023-01-19T10:14:05;22.23;;;4.43;;
62006;SDS011;47963;53.008;6.754;2023-01-19T10:16:47;20.90;;;3.80;;
62006;SDS011;47963;53.008;6.754;2023-01-19T10:19:34;22.95;;;4.45;;
62006;SDS011;47963;53.008;6.754;2023-01-19T10:22:24;24.33;;;3.95;;
62006;SDS011;47963;53.008;6.754;2023-01-19T10:24:51;24.38;;;4.35;;
62006;SDS011;47963;53.008;6.754;2023-01-19T10:27:27;19.58;;;3.55;;
62006;SDS011;47963;53.008;6.754;2023-01-19T10:29:55;20.90;;;4.30;;
62006;SDS011;47963;53.008;6.754;2023-01-19T10:32:29;18.70;;;3.60;;
62006;SDS011;47963;53.008;6.754;2023-01-19T10:34:57;19.52;;;3.63;;
62006;SDS011;47963;53.008;6.754;2023-01-19T10:40:12;18.13;;;3.47;;
62006;SDS011;47963;53.008;6.754;2023-01-19T10:45:17;18.48;;;3.85;;
62006;SDS011;47963;53.008;6.754;2023-01-19T10:47:45;21.90;;;3.58;;
62006;SDS011;47963;53.008;6.754;2023-01-19T10:50:29;16.13;;;3.40;;
62006;SDS011;47963;53.008;6.754;2023-01-19T10:52:57;12.73;;;2.83;;
62006;SDS011;47963;53.008;6.754;2023-01-19T10:55:26;18.08;;;3.55;;
62006;SDS011;47963;53.008;6.754;2023-01-19T10:57:55;18.77;;;3.28;;
62006;SDS011;47963;53.008;6.754;2023-01-19T11:02:55;13.30;;;2.63;;
62006;SDS011;47963;53.008;6.754;2023-01-19T11:07:51;15.30;;;3.17;;
62006;SDS011;47963;53.008;6.754;2023-01-19T11:10:21;19.88;;;3.35;;
62006;SDS011;47963;53.008;6.754;2023-01-19T11:18:21;11.80;;;2.53;;
62006;SDS011;47963;53.008;6.754;2023-01-19T11:20:56;15.90;;;2.55;;
62006;SDS011;47963;53.008;6.754;2023-01-19T11:23:33;16.05;;;2.90;;
62006;SDS011;47963;53.008;6.754;2023-01-19T11:26:08;16.45;;;2.85;;
62006;SDS011;47963;53.008;6.754;2023-01-19T11:28:45;15.77;;;2.88;;
62006;SDS011;47963;53.008;6.754;2023-01-19T11:33:46;15.10;;;2.92;;
62006;SDS011;47963;53.008;6.754;2023-01-19T11:38:45;13.55;;;2.70;;
62006;SDS011;47963;53.008;6.754;2023-01-19T11:41:32;12.02;;;2.40;;
62006;SDS011;47963;53.008;6.754;2023-01-19T11:44:15;14.50;;;2.85;;
62006;SDS011;47963;53.008;6.754;2023-01-19T11:46:46;16.48;;;2.70;;
62006;SDS011;47963;53.008;6.754;2023-01-19T11:49:22;14.20;;;2.58;;
62006;SDS011;47963;53.008;6.754;2023-01-19T11:52:09;13.52;;;2.42;;
62006;SDS011;47963;53.008;6.754;2023-01-19T11:54:59;15.05;;;2.60;;
62006;SDS011;47963;53.008;6.754;2023-01-19T11:57:36;13.25;;;2.28;;
62006;SDS011;47963;53.008;6.754;2023-01-19T12:00:04;12.35;;;2.30;;
62006;SDS011;47963;53.008;6.754;2023-01-19T12:05:47;14.45;;;2.85;;
62006;SDS011;47963;53.008;6.754;2023-01-19T12:08:17;11.95;;;2.30;;
62006;SDS011;47963;53.008;6.754;2023-01-19T12:10:48;14.48;;;2.35;;
62006;SDS011;47963;53.008;6.754;2023-01-19T12:13:20;12.10;;;2.20;;
62006;SDS011;47963;53.008;6.754;2023-01-19T12:15:47;12.40;;;2.20;;
62006;SDS011;47963;53.008;6.754;2023-01-19T12:18:29;14.13;;;2.85;;
62006;SDS011;47963;53.008;6.754;2023-01-19T12:21:05;9.65;;;2.05;;
62006;SDS011;47963;53.008;6.754;2023-01-19T12:29:01;10.40;;;2.00;;
62006;SDS011;47963;53.008;6.754;2023-01-19T12:31:35;11.57;;;2.13;;
62006;SDS011;47963;53.008;6.754;2023-01-19T12:36:50;13.55;;;2.35;;
62006;SDS011;47963;53.008;6.754;2023-01-19T12:39:18;12.52;;;2.20;;
62006;SDS011;47963;53.008;6.754;2023-01-19T12:41:45;11.65;;;2.10;;
62006;SDS011;47963;53.008;6.754;2023-01-19T12:54:54;11.13;;;1.90;;
62006;SDS011;47963;53.008;6.754;2023-01-19T12:57:26;11.03;;;2.00;;
62006;SDS011;47963;53.008;6.754;2023-01-19T12:59:59;11.65;;;2.40;;
62006;SDS011;47963;53.008;6.754;2023-01-19T13:02:44;11.20;;;1.95;;
62006;SDS011;47963;53.008;6.754;2023-01-19T13:13:27;10.43;;;2.25;;
62006;SDS011;47963;53.008;6.754;2023-01-19T13:15:55;10.15;;;1.80;;
62006;SDS011;47963;53.008;6.754;2023-01-19T13:18:27;11.82;;;1.80;;
62006;SDS011;47963;53.008;6.754;2023-01-19T13:20:56;13.85;;;2.30;;
62006;SDS011;47963;53.008;6.754;2023-01-19T13:23:26;8.75;;;1.65;;
62006;SDS011;47963;53.008;6.754;2023-01-19T13:26:19;8.35;;;1.63;;
62006;SDS011;47963;53.008;6.754;2023-01-19T13:28:49;7.85;;;1.45;;
62006;SDS011;47963;53.008;6.754;2023-01-19T13:36:23;9.20;;;1.70;;
62006;SDS011;47963;53.008;6.754;2023-01-19T13:38:54;13.30;;;1.92;;
62006;SDS011;47963;53.008;6.754;2023-01-19T13:41:24;11.93;;;1.60;;
62006;SDS011;47963;53.008;6.754;2023-01-19T13:44:13;9.68;;;1.52;;
62006;SDS011;47963;53.008;6.754;2023-01-19T13:46:46;8.43;;;1.70;;
62006;SDS011;47963;53.008;6.754;2023-01-19T13:49:20;10.90;;;2.00;;
62006;SDS011;47963;53.008;6.754;2023-01-19T13:54:55;9.75;;;1.92;;
62006;SDS011;47963;53.008;6.754;2023-01-19T14:02:32;13.27;;;1.95;;
62006;SDS011;47963;53.008;6.754;2023-01-19T14:05:10;9.68;;;2.03;;
62006;SDS011;47963;53.008;6.754;2023-01-19T14:07:38;9.35;;;1.48;;
62006;SDS011;47963;53.008;6.754;2023-01-19T14:10:04;12.65;;;2.28;;
62006;SDS011;47963;53.008;6.754;2023-01-19T14:12:30;8.45;;;1.80;;
62006;SDS011;47963;53.008;6.754;2023-01-19T14:14:56;10.63;;;1.70;;
62006;SDS011;47963;53.008;6.754;2023-01-19T14:19:53;9.73;;;1.98;;
62006;SDS011;47963;53.008;6.754;2023-01-19T14:22:37;10.70;;;1.90;;
62006;SDS011;47963;53.008;6.754;2023-01-19T14:25:20;8.80;;;1.65;;
62006;SDS011;47963;53.008;6.754;2023-01-19T14:27:46;11.73;;;2.10;;
62006;SDS011;47963;53.008;6.754;2023-01-19T14:30:29;9.07;;;1.70;;
62006;SDS011;47963;53.008;6.754;2023-01-19T14:32:56;10.77;;;1.90;;
62006;SDS011;47963;53.008;6.754;2023-01-19T14:35:23;8.95;;;1.88;;
62006;SDS011;47963;53.008;6.754;2023-01-19T14:37:49;8.45;;;1.50;;
62006;SDS011;47963;53.008;6.754;2023-01-19T14:40:17;8.00;;;1.55;;
62006;SDS011;47963;53.008;6.754;2023-01-19T14:45:23;8.18;;;1.40;;
62006;SDS011;47963;53.008;6.754;2023-01-19T14:48:00;7.70;;;1.60;;
62006;SDS011;47963;53.008;6.754;2023-01-19T14:50:30;9.23;;;1.83;;
62006;SDS011;47963;53.008;6.754;2023-01-19T14:52:59;7.82;;;1.52;;
62006;SDS011;47963;53.008;6.754;2023-01-19T14:57:59;9.93;;;1.83;;
62006;SDS011;47963;53.008;6.754;2023-01-19T15:00:25;9.20;;;1.70;;
62006;SDS011;47963;53.008;6.754;2023-01-19T15:02:51;13.00;;;1.88;;
62006;SDS011;47963;53.008;6.754;2023-01-19T15:05:16;8.55;;;1.85;;
62006;SDS011;47963;53.008;6.754;2023-01-19T15:07:43;9.85;;;1.80;;
62006;SDS011;47963;53.008;6.754;2023-01-19T15:10:20;10.50;;;1.98;;
62006;SDS011;47963;53.008;6.754;2023-01-19T15:12:48;8.15;;;1.55;;
62006;SDS011;47963;53.008;6.754;2023-01-19T15:15:16;11.20;;;1.70;;
62006;SDS011;47963;53.008;6.754;2023-01-19T15:17:46;7.30;;;1.70;;
62006;SDS011;47963;53.008;6.754;2023-01-19T15:20:15;8.38;;;1.67;;
62006;SDS011;47963;53.008;6.754;2023-01-19T15:22:43;9.65;;;1.65;;
62006;SDS011;47963;53.008;6.754;2023-01-19T15:25:16;7.15;;;1.50;;
62006;SDS011;47963;53.008;6.754;2023-01-19T15:27:44;8.27;;;1.52;;
62006;SDS011;47963;53.008;6.754;2023-01-19T15:30:14;9.95;;;1.90;;
62006;SDS011;47963;53.008;6.754;2023-01-19T15:32:57;8.90;;;1.60;;
62006;SDS011;47963;53.008;6.754;2023-01-19T15:35:24;7.43;;;1.70;;
62006;SDS011;47963;53.008;6.754;2023-01-19T15:37:52;8.63;;;2.08;;
62006;SDS011;47963;53.008;6.754;2023-01-19T15:40:18;9.02;;;2.00;;
62006;SDS011;47963;53.008;6.754;2023-01-19T15:42:44;8.57;;;1.90;;
62006;SDS011;47963;53.008;6.754;2023-01-19T15:47:58;9.35;;;1.83;;
62006;SDS011;47963;53.008;6.754;2023-01-19T15:50:26;8.43;;;1.83;;
62006;SDS011;47963;53.008;6.754;2023-01-19T15:52:52;7.88;;;1.85;;
62006;SDS011;47963;53.008;6.754;2023-01-19T15:55:18;12.43;;;2.20;;
62006;SDS011;47963;53.008;6.754;2023-01-19T15:57:43;8.82;;;2.00;;
62006;SDS011;47963;53.008;6.754;2023-01-19T16:00:10;10.00;;;2.20;;
62006;SDS011;47963;53.008;6.754;2023-01-19T16:02:37;8.98;;;2.95;;
62006;SDS011;47963;53.008;6.754;2023-01-19T16:05:03;9.70;;;2.80;;
62006;SDS011;47963;53.008;6.754;2023-01-19T16:07:29;8.68;;;2.47;;
62006;SDS011;47963;53.008;6.754;2023-01-19T16:09:54;10.93;;;3.58;;
62006;SDS011;47963;53.008;6.754;2023-01-19T16:12:20;11.27;;;4.03;;
62006;SDS011;47963;53.008;6.754;2023-01-19T16:14:46;10.73;;;3.25;;
62006;SDS011;47963;53.008;6.754;2023-01-19T16:17:11;8.93;;;2.40;;
62006;SDS011;47963;53.008;6.754;2023-01-19T16:19:37;9.90;;;2.33;;
62006;SDS011;47963;53.008;6.754;2023-01-19T16:22:02;7.45;;;2.20;;
62006;SDS011;47963;53.008;6.754;2023-01-19T16:24:29;8.25;;;1.92;;